sensor_id;sensor_type;location;lat;lon;timestamp;pressure;altitude;pressure_sealevel;temperature;humidity
5679;BME280;2862;52.560;13.566;2023-04-27T00:02:24;100945.66;;;8.35;62.10
5679;BME280;2862;52.560;13.566;2023-04-27T00:12:27;100939.69;;;8.31;62.81
5679;BME280;2862;52.560;13.566;2023-04-27T00:22:32;100930.53;;;8.22;62.87
5679;BME280;2862;52.560;13.566;2023-04-27T00:32:35;100937.25;;;8.28;62.79
5679;BME280;2862;52.560;13.566;2023-04-27T00:42:39;100939.06;;;8.28;62.14
5679;BME280;2862;52.560;13.566;2023-04-27T00:52:42;100946.63;;;8.21;62.12
5679;BME280;2862;52.560;13.566;2023-04-27T01:02:47;100950.75;;;8.25;62.36
5679;BME280;2862;52.560;13.566;2023-04-27T01:12:51;100949.63;;;8.16;62.38
5679;BME280;2862;52.560;13.566;2023-04-27T01:22:56;100958.75;;;8.25;62.24
5679;BME280;2862;52.560;13.566;2023-04-27T01:33:00;100961.31;;;8.14;63.13
5679;BME280;2862;52.560;13.566;2023-04-27T01:43:04;100975.06;;;8.08;62.78
5679;BME280;2862;52.560;13.566;2023-04-27T01:53:10;100976.31;;;7.89;63.26
5679;BME280;2862;52.560;13.566;2023-04-27T02:03:13;100986.84;;;7.78;63.07
5679;BME280;2862;52.560;13.566;2023-04-27T02:13:18;100990.03;;;7.70;63.18
5679;BME280;2862;52.560;13.566;2023-04-27T02:23:22;101002.19;;;7.75;63.57
5679;BME280;2862;52.560;13.566;2023-04-27T02:33:26;101015.56;;;7.73;64.21
5679;BME280;2862;52.560;13.566;2023-04-27T02:43:30;101012.81;;;7.75;64.89
5679;BME280;2862;52.560;13.566;2023-04-27T02:53:35;101010.78;;;7.78;64.79
5679;BME280;2862;52.560;13.566;2023-04-27T03:03:38;101021.22;;;7.68;64.86
5679;BME280;2862;52.560;13.566;2023-04-27T03:13:42;101023.63;;;7.59;65.57
5679;BME280;2862;52.560;13.566;2023-04-27T03:23:45;101031.50;;;7.60;65.59
5679;BME280;2862;52.560;13.566;2023-04-27T03:33:51;101031.31;;;7.63;65.56
5679;BME280;2862;52.560;13.566;2023-04-27T03:43:56;101050.25;;;7.59;65.50
5679;BME280;2862;52.560;13.566;2023-04-27T03:54:00;101050.16;;;7.73;64.42
5679;BME280;2862;52.560;13.566;2023-04-27T04:04:04;101058.78;;;7.64;65.49
5679;BME280;2862;52.560;13.566;2023-04-27T04:14:09;101070.06;;;7.67;64.92
5679;BME280;2862;52.560;13.566;2023-04-27T04:24:13;101089.19;;;7.60;64.45
5679;BME280;2862;52.560;13.566;2023-04-27T04:34:19;101087.84;;;7.67;64.21
5679;BME280;2862;52.560;13.566;2023-04-27T04:44:22;101090.66;;;7.78;64.22
5679;BME280;2862;52.560;13.566;2023-04-27T04:54:26;101091.75;;;7.88;63.20
5679;BME280;2862;52.560;13.566;2023-04-27T05:04:30;101106.31;;;8.10;62.85
5679;BME280;2862;52.560;13.566;2023-04-27T05:14:34;101100.03;;;8.50;61.85
5679;BME280;2862;52.560;13.566;2023-04-27T05:24:38;101107.72;;;8.81;60.49
5679;BME280;2862;52.560;13.566;2023-04-27T05:34:42;101093.88;;;10.91;62.94
5679;BME280;2862;52.560;13.566;2023-04-27T05:44:47;101102.94;;;12.10;55.09
5679;BME280;2862;52.560;13.566;2023-04-27T05:54:51;101110.34;;;12.39;49.85
5679;BME280;2862;52.560;13.566;2023-04-27T06:04:54;101108.50;;;12.18;50.54
5679;BME280;2862;52.560;13.566;2023-04-27T06:14:59;101123.34;;;11.90;50.05
5679;BME280;2862;52.560;13.566;2023-04-27T06:25:05;101118.69;;;16.93;38.24
5679;BME280;2862;52.560;13.566;2023-04-27T06:35:09;101112.56;;;17.51;36.64
5679;BME280;2862;52.560;13.566;2023-04-27T06:45:12;101120.94;;;17.82;35.38
5679;BME280;2862;52.560;13.566;2023-04-27T06:55:16;101114.97;;;22.12;27.97
5679;BME280;2862;52.560;13.566;2023-04-27T07:05:19;101107.44;;;25.22;23.18
5679;BME280;2862;52.560;13.566;2023-04-27T07:15:24;101120.81;;;22.80;26.56
5679;BME280;2862;52.560;13.566;2023-04-27T07:25:30;101119.16;;;23.96;24.40
5679;BME280;2862;52.560;13.566;2023-04-27T07:35:36;101123.91;;;21.55;26.94
5679;BME280;2862;52.560;13.566;2023-04-27T07:45:41;101135.63;;;18.87;30.15
5679;BME280;2862;52.560;13.566;2023-04-27T07:55:46;101144.94;;;17.77;31.78
5679;BME280;2862;52.560;13.566;2023-04-27T08:05:49;101154.38;;;15.89;35.64
5679;BME280;2862;52.560;13.566;2023-04-27T08:15:54;101152.06;;;16.48;33.11
5679;BME280;2862;52.560;13.566;2023-04-27T08:26:00;101139.81;;;17.32;32.13
5679;BME280;2862;52.560;13.566;2023-04-27T08:36:05;101157.44;;;15.39;34.87
5679;BME280;2862;52.560;13.566;2023-04-27T08:46:08;101159.84;;;15.43;34.71
5679;BME280;2862;52.560;13.566;2023-04-27T08:56:14;101151.28;;;14.63;35.23
5679;BME280;2862;52.560;13.566;2023-04-27T09:06:28;101171.53;;;12.66;40.86
5679;BME280;2862;52.560;13.566;2023-04-27T09:16:33;101157.44;;;13.36;40.69
5679;BME280;2862;52.560;13.566;2023-04-27T09:26:37;101157.28;;;13.88;38.41
5679;BME280;2862;52.560;13.566;2023-04-27T09:36:41;101150.69;;;13.21;38.26
5679;BME280;2862;52.560;13.566;2023-04-27T09:46:46;101134.94;;;13.37;38.11
5679;BME280;2862;52.560;13.566;2023-04-27T09:56:57;101140.56;;;13.34;37.75
5679;BME280;2862;52.560;13.566;2023-04-27T10:07:04;101127.41;;;13.81;36.70
5679;BME280;2862;52.560;13.566;2023-04-27T10:17:10;101131.56;;;13.45;37.22
5679;BME280;2862;52.560;13.566;2023-04-27T10:27:16;101129.53;;;13.27;36.70
5679;BME280;2862;52.560;13.566;2023-04-27T10:37:22;101122.63;;;14.04;37.58
5679;BME280;2862;52.560;13.566;2023-04-27T10:47:36;101124.03;;;13.89;34.43
5679;BME280;2862;52.560;13.566;2023-04-27T10:57:49;101122.38;;;13.47;36.46
5679;BME280;2862;52.560;13.566;2023-04-27T11:08:03;101131.22;;;13.28;36.04
5679;BME280;2862;52.560;13.566;2023-04-27T11:18:09;101124.19;;;14.16;34.83
5679;BME280;2862;52.560;13.566;2023-04-27T11:28:16;101122.53;;;13.46;35.87
5679;BME280;2862;52.560;13.566;2023-04-27T11:38:21;101143.50;;;13.21;36.51
5679;BME280;2862;52.560;13.566;2023-04-27T11:48:26;101145.25;;;13.11;36.08
5679;BME280;2862;52.560;13.566;2023-04-27T11:58:32;101151.84;;;13.07;36.09
5679;BME280;2862;52.560;13.566;2023-04-27T12:08:35;101149.75;;;13.32;33.98
5679;BME280;2862;52.560;13.566;2023-04-27T12:18:40;101147.06;;;13.72;31.87
5679;BME280;2862;52.560;13.566;2023-04-27T12:28:44;101162.16;;;13.63;33.96
5679;BME280;2862;52.560;13.566;2023-04-27T12:38:48;101155.97;;;13.32;36.11
5679;BME280;2862;52.560;13.566;2023-04-27T12:48:52;101162.47;;;13.70;35.41
5679;BME280;2862;52.560;13.566;2023-04-27T12:58:58;101167.66;;;14.21;34.62
5679;BME280;2862;52.560;13.566;2023-04-27T13:09:01;101155.22;;;14.30;33.72
5679;BME280;2862;52.560;13.566;2023-04-27T13:19:05;101156.19;;;14.00;34.74
5679;BME280;2862;52.560;13.566;2023-04-27T13:29:09;101163.81;;;13.95;33.06
5679;BME280;2862;52.560;13.566;2023-04-27T13:39:13;101159.84;;;14.08;31.81
5679;BME280;2862;52.560;13.566;2023-04-27T13:49:18;101152.59;;;13.09;33.59
5679;BME280;2862;52.560;13.566;2023-04-27T13:59:22;101146.25;;;13.41;34.49
5679;BME280;2862;52.560;13.566;2023-04-27T14:09:25;101151.72;;;13.60;33.42
5679;BME280;2862;52.560;13.566;2023-04-27T14:19:30;101159.22;;;13.36;34.33
5679;BME280;2862;52.560;13.566;2023-04-27T14:29:34;101157.63;;;13.54;33.95
5679;BME280;2862;52.560;13.566;2023-04-27T14:39:39;101155.53;;;13.67;33.62
5679;BME280;2862;52.560;13.566;2023-04-27T14:49:44;101165.69;;;13.23;34.36
5679;BME280;2862;52.560;13.566;2023-04-27T14:59:49;101160.28;;;13.44;34.97
5679;BME280;2862;52.560;13.566;2023-04-27T15:09:52;101158.41;;;13.14;34.20
5679;BME280;2862;52.560;13.566;2023-04-27T15:19:58;101144.75;;;12.96;35.38
5679;BME280;2862;52.560;13.566;2023-04-27T15:30:01;101148.38;;;12.86;34.80
5679;BME280;2862;52.560;13.566;2023-04-27T15:40:08;101139.31;;;13.38;34.47
5679;BME280;2862;52.560;13.566;2023-04-27T15:50:12;101121.19;;;13.71;32.44
5679;BME280;2862;52.560;13.566;2023-04-27T16:00:19;101125.28;;;13.65;33.18
5679;BME280;2862;52.560;13.566;2023-04-27T16:10:22;101118.59;;;13.19;33.20
5679;BME280;2862;52.560;13.566;2023-04-27T16:20:27;101112.72;;;13.05;32.48
5679;BME280;2862;52.560;13.566;2023-04-27T16:30:32;101106.50;;;13.04;33.55
5679;BME280;2862;52.560;13.566;2023-04-27T16:40:36;101102.09;;;12.72;35.50
5679;BME280;2862;52.560;13.566;2023-04-27T16:50:39;101101.19;;;12.62;33.91
5679;BME280;2862;52.560;13.566;2023-04-27T17:00:44;101100.53;;;13.00;33.69
5679;BME280;2862;52.560;13.566;2023-04-27T17:10:47;101103.41;;;12.57;34.03
5679;BME280;2862;52.560;13.566;2023-04-27T17:20:51;101098.50;;;12.62;34.19
5679;BME280;2862;52.560;13.566;2023-04-27T17:30:54;101105.91;;;12.28;35.42
5679;BME280;2862;52.560;13.566;2023-04-27T17:40:59;101108.91;;;12.35;35.39
5679;BME280;2862;52.560;13.566;2023-04-27T17:51:02;101115.03;;;12.26;36.56
5679;BME280;2862;52.560;13.566;2023-04-27T18:01:06;101107.63;;;11.86;36.83
5679;BME280;2862;52.560;13.566;2023-04-27T18:11:10;101128.38;;;11.50;38.04
5679;BME280;2862;52.560;13.566;2023-04-27T18:21:14;101141.06;;;11.26;37.89
5679;BME280;2862;52.560;13.566;2023-04-27T18:31:18;101145.31;;;11.06;38.93
5679;BME280;2862;52.560;13.566;2023-04-27T18:41:22;101154.91;;;10.97;38.80
5679;BME280;2862;52.560;13.566;2023-04-27T18:51:25;101169.47;;;10.82;39.08
5679;BME280;2862;52.560;13.566;2023-04-27T19:01:31;101180.88;;;10.61;40.17
5679;BME280;2862;52.560;13.566;2023-04-27T19:11:34;101169.84;;;10.42;43.27
5679;BME280;2862;52.560;13.566;2023-04-27T19:21:38;101168.56;;;10.24;41.57
5679;BME280;2862;52.560;13.566;2023-04-27T19:31:43;101176.03;;;9.95;43.41
5679;BME280;2862;52.560;13.566;2023-04-27T19:41:48;101168.50;;;9.76;44.05
5679;BME280;2862;52.560;13.566;2023-04-27T19:51:50;101165.97;;;9.62;43.98
5679;BME280;2862;52.560;13.566;2023-04-27T20:01:55;101168.78;;;9.47;45.33
5679;BME280;2862;52.560;13.566;2023-04-27T20:11:58;101173.94;;;9.38;44.23
5679;BME280;2862;52.560;13.566;2023-04-27T20:22:06;101162.72;;;9.32;44.20
5679;BME280;2862;52.560;13.566;2023-04-27T20:32:09;101168.63;;;9.25;45.19
5679;BME280;2862;52.560;13.566;2023-04-27T20:42:13;101166.28;;;9.08;47.97
5679;BME280;2862;52.560;13.566;2023-04-27T20:52:17;101160.19;;;8.80;49.16
5679;BME280;2862;52.560;13.566;2023-04-27T21:02:21;101167.38;;;8.52;52.52
5679;BME280;2862;52.560;13.566;2023-04-27T21:12:24;101159.38;;;8.40;53.07
5679;BME280;2862;52.560;13.566;2023-04-27T21:22:30;101153.69;;;8.32;52.75
5679;BME280;2862;52.560;13.566;2023-04-27T21:32:33;101150.00;;;8.20;53.10
5679;BME280;2862;52.560;13.566;2023-04-27T21:42:37;101143.19;;;8.16;53.54
5679;BME280;2862;52.560;13.566;2023-04-27T21:52:41;101143.03;;;8.05;55.23
5679;BME280;2862;52.560;13.566;2023-04-27T22:02:46;101149.81;;;7.96;54.70
5679;BME280;2862;52.560;13.566;2023-04-27T22:12:52;101143.69;;;7.81;55.06
5679;BME280;2862;52.560;13.566;2023-04-27T22:23:04;101151.69;;;7.81;54.96
5679;BME280;2862;52.560;13.566;2023-04-27T22:33:15;101152.22;;;7.59;57.29
5679;BME280;2862;52.560;13.566;2023-04-27T22:43:20;101152.94;;;7.34;59.52
5679;BME280;2862;52.560;13.566;2023-04-27T22:53:23;101160.03;;;7.05;60.44
5679;BME280;2862;52.560;13.566;2023-04-27T23:03:28;101151.88;;;7.08;60.06
5679;BME280;2862;52.560;13.566;2023-04-27T23:13:31;101136.38;;;6.86;60.75
5679;BME280;2862;52.560;13.566;2023-04-27T23:23:36;101137.69;;;6.65;62.69
5679;BME280;2862;52.560;13.566;2023-04-27T23:33:40;101134.44;;;6.46;61.94
5679;BME280;2862;52.560;13.566;2023-04-27T23:43:44;101131.81;;;6.30;62.70
5679;BME280;2862;52.560;13.566;2023-04-27T23:53:47;101111.03;;;6.22;63.29
